sensor_id;sensor_type;location;lat;lon;timestamp;P1;durP1;ratioP1;P2;durP2;ratioP2
35961;SDS011;22044;48.298;10.008;2022-12-07T00:01:29;11.00;;;8.90;;
35961;SDS011;22044;48.298;10.008;2022-12-07T00:04:17;11.50;;;8.47;;
35961;SDS011;22044;48.298;10.008;2022-12-07T00:07:04;10.17;;;8.40;;
35961;SDS011;22044;48.298;10.008;2022-12-07T00:09:49;12.20;;;9.43;;
35961;SDS011;22044;48.298;10.008;2022-12-07T00:12:34;11.93;;;9.43;;
35961;SDS011;22044;48.298;10.008;2022-12-07T00:15:20;10.97;;;8.67;;
35961;SDS011;22044;48.298;10.008;2022-12-07T00:18:06;13.53;;;9.27;;
35961;SDS011;22044;48.298;10.008;2022-12-07T00:20:53;11.77;;;9.10;;
35961;SDS011;22044;48.298;10.008;2022-12-07T00:23:43;10.67;;;9.17;;
35961;SDS011;22044;48.298;10.008;2022-12-07T00:26:30;10.17;;;8.60;;
35961;SDS011;22044;48.298;10.008;2022-12-07T00:29:19;11.03;;;8.97;;
35961;SDS011;22044;48.298;10.008;2022-12-07T00:32:06;13.07;;;8.80;;
35961;SDS011;22044;48.298;10.008;2022-12-07T00:34:52;10.83;;;8.63;;
35961;SDS011;22044;48.298;10.008;2022-12-07T00:37:39;10.70;;;8.80;;
35961;SDS011;22044;48.298;10.008;2022-12-07T00:40:24;11.93;;;8.33;;
35961;SDS011;22044;48.298;10.008;2022-12-07T00:43:10;11.63;;;9.30;;
35961;SDS011;22044;48.298;10.008;2022-12-07T00:45:55;11.43;;;9.33;;
35961;SDS011;22044;48.298;10.008;2022-12-07T00:48:41;10.23;;;8.07;;
35961;SDS011;22044;48.298;10.008;2022-12-07T00:51:27;11.23;;;8.80;;
35961;SDS011;22044;48.298;10.008;2022-12-07T00:54:14;11.27;;;8.50;;
35961;SDS011;22044;48.298;10.008;2022-12-07T00:57:00;11.30;;;9.07;;
35961;SDS011;22044;48.298;10.008;2022-12-07T00:59:45;12.23;;;9.20;;
35961;SDS011;22044;48.298;10.008;2022-12-07T01:02:31;12.23;;;9.63;;
35961;SDS011;22044;48.298;10.008;2022-12-07T01:05:17;11.40;;;8.67;;
35961;SDS011;22044;48.298;10.008;2022-12-07T01:08:04;11.47;;;8.23;;
35961;SDS011;22044;48.298;10.008;2022-12-07T01:10:56;10.73;;;8.50;;
35961;SDS011;22044;48.298;10.008;2022-12-07T01:13:43;11.10;;;8.07;;
35961;SDS011;22044;48.298;10.008;2022-12-07T01:16:30;10.70;;;8.23;;
35961;SDS011;22044;48.298;10.008;2022-12-07T01:19:17;11.10;;;8.37;;
35961;SDS011;22044;48.298;10.008;2022-12-07T01:22:03;11.97;;;9.53;;
35961;SDS011;22044;48.298;10.008;2022-12-07T01:24:49;13.17;;;9.20;;
35961;SDS011;22044;48.298;10.008;2022-12-07T01:27:35;12.00;;;8.07;;
35961;SDS011;22044;48.298;10.008;2022-12-07T01:30:21;10.90;;;8.83;;
35961;SDS011;22044;48.298;10.008;2022-12-07T01:33:07;11.20;;;8.87;;
35961;SDS011;22044;48.298;10.008;2022-12-07T01:35:52;10.93;;;8.83;;
35961;SDS011;22044;48.298;10.008;2022-12-07T01:38:38;11.13;;;9.00;;
35961;SDS011;22044;48.298;10.008;2022-12-07T01:41:25;12.67;;;9.63;;
35961;SDS011;22044;48.298;10.008;2022-12-07T01:44:15;11.93;;;8.93;;
35961;SDS011;22044;48.298;10.008;2022-12-07T01:47:03;12.10;;;8.90;;
35961;SDS011;22044;48.298;10.008;2022-12-07T01:49:49;10.47;;;8.60;;
35961;SDS011;22044;48.298;10.008;2022-12-07T01:52:34;11.60;;;9.27;;
35961;SDS011;22044;48.298;10.008;2022-12-07T01:55:22;12.93;;;9.93;;
35961;SDS011;22044;48.298;10.008;2022-12-07T01:58:08;10.90;;;8.43;;
35961;SDS011;22044;48.298;10.008;2022-12-07T02:00:57;11.37;;;9.07;;
35961;SDS011;22044;48.298;10.008;2022-12-07T02:03:43;12.03;;;9.20;;
35961;SDS011;22044;48.298;10.008;2022-12-07T02:06:30;11.00;;;9.07;;
35961;SDS011;22044;48.298;10.008;2022-12-07T02:09:15;12.43;;;9.37;;
35961;SDS011;22044;48.298;10.008;2022-12-07T02:12:01;12.27;;;9.63;;
35961;SDS011;22044;48.298;10.008;2022-12-07T02:14:48;10.70;;;8.33;;
35961;SDS011;22044;48.298;10.008;2022-12-07T02:17:37;11.07;;;8.40;;
35961;SDS011;22044;48.298;10.008;2022-12-07T02:20:34;12.47;;;9.37;;
35961;SDS011;22044;48.298;10.008;2022-12-07T02:23:36;10.77;;;9.23;;
35961;SDS011;22044;48.298;10.008;2022-12-07T02:27:07;14.37;;;10.37;;
35961;SDS011;22044;48.298;10.008;2022-12-07T02:30:09;10.60;;;8.50;;
35961;SDS011;22044;48.298;10.008;2022-12-07T02:32:57;12.13;;;9.40;;
35961;SDS011;22044;48.298;10.008;2022-12-07T02:35:46;12.17;;;9.33;;
35961;SDS011;22044;48.298;10.008;2022-12-07T02:38:38;12.43;;;9.50;;
35961;SDS011;22044;48.298;10.008;2022-12-07T02:41:29;11.40;;;8.90;;
35961;SDS011;22044;48.298;10.008;2022-12-07T02:44:20;12.07;;;9.87;;
35961;SDS011;22044;48.298;10.008;2022-12-07T02:47:09;12.90;;;9.50;;
35961;SDS011;22044;48.298;10.008;2022-12-07T02:49:58;10.67;;;8.37;;
35961;SDS011;22044;48.298;10.008;2022-12-07T02:52:44;10.83;;;8.90;;
35961;SDS011;22044;48.298;10.008;2022-12-07T02:55:30;12.90;;;11.45;;
35961;SDS011;22044;48.298;10.008;2022-12-07T02:58:23;10.50;;;9.40;;
35961;SDS011;22044;48.298;10.008;2022-12-07T03:01:20;11.90;;;9.33;;
35961;SDS011;22044;48.298;10.008;2022-12-07T03:04:17;12.83;;;9.03;;
35961;SDS011;22044;48.298;10.008;2022-12-07T03:07:14;10.87;;;8.97;;
35961;SDS011;22044;48.298;10.008;2022-12-07T03:10:10;11.73;;;9.53;;
35961;SDS011;22044;48.298;10.008;2022-12-07T03:13:04;10.77;;;8.80;;
35961;SDS011;22044;48.298;10.008;2022-12-07T03:15:56;12.73;;;8.83;;
35961;SDS011;22044;48.298;10.008;2022-12-07T03:18:47;11.60;;;9.00;;
35961;SDS011;22044;48.298;10.008;2022-12-07T03:21:38;11.03;;;8.27;;
35961;SDS011;22044;48.298;10.008;2022-12-07T03:24:26;10.13;;;8.17;;
35961;SDS011;22044;48.298;10.008;2022-12-07T03:27:14;12.30;;;8.90;;
35961;SDS011;22044;48.298;10.008;2022-12-07T03:30:05;10.23;;;8.67;;
35961;SDS011;22044;48.298;10.008;2022-12-07T03:32:56;11.80;;;9.30;;
35961;SDS011;22044;48.298;10.008;2022-12-07T03:35:45;10.47;;;8.47;;
35961;SDS011;22044;48.298;10.008;2022-12-07T03:38:38;10.50;;;8.50;;
35961;SDS011;22044;48.298;10.008;2022-12-07T03:41:29;11.83;;;8.97;;
35961;SDS011;22044;48.298;10.008;2022-12-07T03:44:17;11.63;;;9.00;;
35961;SDS011;22044;48.298;10.008;2022-12-07T03:47:04;11.50;;;8.63;;
35961;SDS011;22044;48.298;10.008;2022-12-07T03:49:58;11.77;;;9.23;;
35961;SDS011;22044;48.298;10.008;2022-12-07T03:52:47;11.60;;;8.77;;
35961;SDS011;22044;48.298;10.008;2022-12-07T03:55:42;11.60;;;9.40;;
35961;SDS011;22044;48.298;10.008;2022-12-07T03:58:29;13.00;;;9.30;;
35961;SDS011;22044;48.298;10.008;2022-12-07T04:01:17;11.43;;;8.63;;
35961;SDS011;22044;48.298;10.008;2022-12-07T04:04:03;11.83;;;9.33;;
35961;SDS011;22044;48.298;10.008;2022-12-07T04:06:49;12.20;;;9.00;;
35961;SDS011;22044;48.298;10.008;2022-12-07T04:09:34;11.70;;;9.67;;
35961;SDS011;22044;48.298;10.008;2022-12-07T04:12:21;11.07;;;8.83;;
35961;SDS011;22044;48.298;10.008;2022-12-07T04:15:08;10.87;;;8.57;;
35961;SDS011;22044;48.298;10.008;2022-12-07T04:17:54;11.37;;;8.60;;
35961;SDS011;22044;48.298;10.008;2022-12-07T04:20:39;11.30;;;9.43;;
35961;SDS011;22044;48.298;10.008;2022-12-07T04:23:25;11.73;;;9.20;;
35961;SDS011;22044;48.298;10.008;2022-12-07T04:26:10;15.30;;;9.77;;
35961;SDS011;22044;48.298;10.008;2022-12-07T04:28:58;11.57;;;9.20;;
35961;SDS011;22044;48.298;10.008;2022-12-07T04:31:43;11.87;;;9.50;;
35961;SDS011;22044;48.298;10.008;2022-12-07T04:34:29;13.63;;;10.83;;
35961;SDS011;22044;48.298;10.008;2022-12-07T04:37:15;13.23;;;9.90;;
35961;SDS011;22044;48.298;10.008;2022-12-07T04:40:01;12.97;;;10.13;;
35961;SDS011;22044;48.298;10.008;2022-12-07T04:42:46;12.63;;;9.60;;
35961;SDS011;22044;48.298;10.008;2022-12-07T04:45:33;13.00;;;10.23;;
35961;SDS011;22044;48.298;10.008;2022-12-07T04:48:18;13.17;;;10.00;;
35961;SDS011;22044;48.298;10.008;2022-12-07T04:51:05;15.40;;;11.23;;
35961;SDS011;22044;48.298;10.008;2022-12-07T04:53:51;13.63;;;11.07;;
35961;SDS011;22044;48.298;10.008;2022-12-07T04:56:37;14.23;;;11.53;;
35961;SDS011;22044;48.298;10.008;2022-12-07T04:59:23;15.83;;;11.60;;
35961;SDS011;22044;48.298;10.008;2022-12-07T05:02:10;13.53;;;10.60;;
35961;SDS011;22044;48.298;10.008;2022-12-07T05:04:55;14.30;;;11.20;;
35961;SDS011;22044;48.298;10.008;2022-12-07T05:07:41;13.80;;;11.10;;
35961;SDS011;22044;48.298;10.008;2022-12-07T05:10:27;15.07;;;11.67;;
35961;SDS011;22044;48.298;10.008;2022-12-07T05:13:12;14.03;;;11.20;;
35961;SDS011;22044;48.298;10.008;2022-12-07T05:15:58;14.37;;;11.10;;
35961;SDS011;22044;48.298;10.008;2022-12-07T05:18:45;14.17;;;11.03;;
35961;SDS011;22044;48.298;10.008;2022-12-07T05:21:31;14.00;;;10.77;;
35961;SDS011;22044;48.298;10.008;2022-12-07T05:24:17;13.93;;;10.37;;
35961;SDS011;22044;48.298;10.008;2022-12-07T05:27:03;13.67;;;10.53;;
35961;SDS011;22044;48.298;10.008;2022-12-07T05:29:49;13.50;;;11.17;;
35961;SDS011;22044;48.298;10.008;2022-12-07T05:32:34;16.53;;;11.43;;
35961;SDS011;22044;48.298;10.008;2022-12-07T05:35:22;13.63;;;11.00;;
35961;SDS011;22044;48.298;10.008;2022-12-07T05:38:07;14.03;;;10.80;;
35961;SDS011;22044;48.298;10.008;2022-12-07T05:40:53;13.47;;;10.57;;
35961;SDS011;22044;48.298;10.008;2022-12-07T05:43:38;13.20;;;9.97;;
35961;SDS011;22044;48.298;10.008;2022-12-07T05:46:24;14.07;;;10.20;;
35961;SDS011;22044;48.298;10.008;2022-12-07T05:49:09;14.57;;;11.33;;
35961;SDS011;22044;48.298;10.008;2022-12-07T05:51:56;15.33;;;10.60;;
35961;SDS011;22044;48.298;10.008;2022-12-07T05:54:42;14.00;;;10.40;;
35961;SDS011;22044;48.298;10.008;2022-12-07T05:57:28;15.27;;;11.00;;
35961;SDS011;22044;48.298;10.008;2022-12-07T06:00:14;14.87;;;10.90;;
35961;SDS011;22044;48.298;10.008;2022-12-07T06:02:58;13.20;;;10.63;;
35961;SDS011;22044;48.298;10.008;2022-12-07T06:05:45;12.53;;;9.93;;
35961;SDS011;22044;48.298;10.008;2022-12-07T06:08:31;16.90;;;11.30;;
35961;SDS011;22044;48.298;10.008;2022-12-07T06:11:17;15.30;;;11.37;;
35961;SDS011;22044;48.298;10.008;2022-12-07T06:14:21;14.87;;;11.20;;
35961;SDS011;22044;48.298;10.008;2022-12-07T06:17:06;15.27;;;11.03;;
35961;SDS011;22044;48.298;10.008;2022-12-07T06:19:52;16.33;;;11.30;;
35961;SDS011;22044;48.298;10.008;2022-12-07T06:22:38;14.07;;;10.67;;
35961;SDS011;22044;48.298;10.008;2022-12-07T06:25:25;11.87;;;9.60;;
35961;SDS011;22044;48.298;10.008;2022-12-07T06:28:10;12.63;;;10.10;;
35961;SDS011;22044;48.298;10.008;2022-12-07T06:30:56;13.30;;;10.10;;
35961;SDS011;22044;48.298;10.008;2022-12-07T06:33:43;14.07;;;10.37;;
35961;SDS011;22044;48.298;10.008;2022-12-07T06:36:28;12.77;;;10.23;;
35961;SDS011;22044;48.298;10.008;2022-12-07T06:39:14;14.30;;;10.73;;
35961;SDS011;22044;48.298;10.008;2022-12-07T06:42:01;15.03;;;11.20;;
35961;SDS011;22044;48.298;10.008;2022-12-07T06:44:47;15.43;;;12.43;;
35961;SDS011;22044;48.298;10.008;2022-12-07T06:47:32;14.80;;;11.57;;
35961;SDS011;22044;48.298;10.008;2022-12-07T06:50:18;13.93;;;10.80;;
35961;SDS011;22044;48.298;10.008;2022-12-07T06:53:04;13.10;;;10.97;;
35961;SDS011;22044;48.298;10.008;2022-12-07T06:55:49;13.10;;;10.10;;
35961;SDS011;22044;48.298;10.008;2022-12-07T06:58:37;13.80;;;10.90;;
35961;SDS011;22044;48.298;10.008;2022-12-07T07:01:22;16.17;;;10.97;;
35961;SDS011;22044;48.298;10.008;2022-12-07T07:04:08;15.37;;;12.47;;
35961;SDS011;22044;48.298;10.008;2022-12-07T07:06:54;13.80;;;11.13;;
35961;SDS011;22044;48.298;10.008;2022-12-07T07:09:39;16.90;;;13.20;;
35961;SDS011;22044;48.298;10.008;2022-12-07T07:12:25;17.87;;;12.90;;
35961;SDS011;22044;48.298;10.008;2022-12-07T07:15:11;15.20;;;12.00;;
35961;SDS011;22044;48.298;10.008;2022-12-07T07:17:57;17.10;;;10.77;;
35961;SDS011;22044;48.298;10.008;2022-12-07T07:20:43;14.60;;;10.53;;
35961;SDS011;22044;48.298;10.008;2022-12-07T07:23:28;14.03;;;10.10;;
35961;SDS011;22044;48.298;10.008;2022-12-07T07:26:15;15.23;;;11.13;;
35961;SDS011;22044;48.298;10.008;2022-12-07T07:29:00;15.57;;;10.77;;
35961;SDS011;22044;48.298;10.008;2022-12-07T07:31:47;14.97;;;10.43;;
35961;SDS011;22044;48.298;10.008;2022-12-07T07:34:33;16.60;;;10.93;;
35961;SDS011;22044;48.298;10.008;2022-12-07T07:37:19;15.53;;;10.93;;
35961;SDS011;22044;48.298;10.008;2022-12-07T07:40:05;17.10;;;10.67;;
35961;SDS011;22044;48.298;10.008;2022-12-07T07:42:52;15.43;;;11.20;;
35961;SDS011;22044;48.298;10.008;2022-12-07T07:45:38;15.40;;;11.33;;
35961;SDS011;22044;48.298;10.008;2022-12-07T07:48:25;15.57;;;10.93;;
35961;SDS011;22044;48.298;10.008;2022-12-07T07:51:11;17.93;;;12.37;;
35961;SDS011;22044;48.298;10.008;2022-12-07T07:53:56;16.53;;;10.73;;
35961;SDS011;22044;48.298;10.008;2022-12-07T07:56:42;19.80;;;13.27;;
35961;SDS011;22044;48.298;10.008;2022-12-07T07:59:27;18.50;;;11.93;;
35961;SDS011;22044;48.298;10.008;2022-12-07T08:02:13;19.57;;;12.10;;
35961;SDS011;22044;48.298;10.008;2022-12-07T08:05:01;16.17;;;11.90;;
35961;SDS011;22044;48.298;10.008;2022-12-07T08:07:47;19.07;;;11.47;;
35961;SDS011;22044;48.298;10.008;2022-12-07T08:10:33;22.17;;;12.80;;
35961;SDS011;22044;48.298;10.008;2022-12-07T08:13:19;20.20;;;12.37;;
35961;SDS011;22044;48.298;10.008;2022-12-07T08:16:05;19.70;;;13.03;;
35961;SDS011;22044;48.298;10.008;2022-12-07T08:18:52;20.20;;;12.73;;
35961;SDS011;22044;48.298;10.008;2022-12-07T08:21:39;19.07;;;12.27;;
35961;SDS011;22044;48.298;10.008;2022-12-07T08:24:25;20.00;;;12.47;;
35961;SDS011;22044;48.298;10.008;2022-12-07T08:27:10;16.73;;;11.83;;
35961;SDS011;22044;48.298;10.008;2022-12-07T08:29:56;15.53;;;11.53;;
35961;SDS011;22044;48.298;10.008;2022-12-07T08:32:42;18.20;;;11.90;;
35961;SDS011;22044;48.298;10.008;2022-12-07T08:35:29;15.03;;;11.60;;
35961;SDS011;22044;48.298;10.008;2022-12-07T08:38:18;14.37;;;10.07;;
35961;SDS011;22044;48.298;10.008;2022-12-07T08:41:04;12.50;;;10.37;;
35961;SDS011;22044;48.298;10.008;2022-12-07T08:43:51;13.37;;;9.70;;
35961;SDS011;22044;48.298;10.008;2022-12-07T08:46:37;12.27;;;9.77;;
35961;SDS011;22044;48.298;10.008;2022-12-07T08:49:25;13.67;;;10.47;;
35961;SDS011;22044;48.298;10.008;2022-12-07T08:52:13;13.03;;;9.80;;
35961;SDS011;22044;48.298;10.008;2022-12-07T08:55:00;10.70;;;8.97;;
35961;SDS011;22044;48.298;10.008;2022-12-07T08:57:47;11.93;;;9.50;;
35961;SDS011;22044;48.298;10.008;2022-12-07T09:00:33;12.27;;;9.17;;
35961;SDS011;22044;48.298;10.008;2022-12-07T09:03:19;12.00;;;8.50;;
35961;SDS011;22044;48.298;10.008;2022-12-07T09:06:04;10.30;;;8.87;;
35961;SDS011;22044;48.298;10.008;2022-12-07T09:08:51;13.37;;;9.80;;
35961;SDS011;22044;48.298;10.008;2022-12-07T09:11:44;11.37;;;8.47;;
35961;SDS011;22044;48.298;10.008;2022-12-07T09:14:30;10.87;;;8.77;;
35961;SDS011;22044;48.298;10.008;2022-12-07T09:17:16;10.00;;;8.30;;
35961;SDS011;22044;48.298;10.008;2022-12-07T09:20:02;10.63;;;8.17;;
35961;SDS011;22044;48.298;10.008;2022-12-07T09:22:48;11.20;;;8.33;;
35961;SDS011;22044;48.298;10.008;2022-12-07T09:25:34;11.97;;;8.83;;
35961;SDS011;22044;48.298;10.008;2022-12-07T09:28:21;10.17;;;8.37;;
35961;SDS011;22044;48.298;10.008;2022-12-07T09:31:07;7.87;;;6.73;;
35961;SDS011;22044;48.298;10.008;2022-12-07T09:33:53;7.53;;;6.10;;
35961;SDS011;22044;48.298;10.008;2022-12-07T09:36:39;8.03;;;6.40;;
35961;SDS011;22044;48.298;10.008;2022-12-07T09:39:26;8.87;;;6.80;;
35961;SDS011;22044;48.298;10.008;2022-12-07T09:42:16;9.33;;;7.37;;
35961;SDS011;22044;48.298;10.008;2022-12-07T09:45:14;9.17;;;7.20;;
35961;SDS011;22044;48.298;10.008;2022-12-07T09:48:02;8.03;;;6.93;;
35961;SDS011;22044;48.298;10.008;2022-12-07T09:50:49;7.73;;;6.93;;
35961;SDS011;22044;48.298;10.008;2022-12-07T09:53:36;9.93;;;7.10;;
35961;SDS011;22044;48.298;10.008;2022-12-07T09:56:22;10.20;;;7.17;;
35961;SDS011;22044;48.298;10.008;2022-12-07T09:59:11;10.17;;;6.53;;
35961;SDS011;22044;48.298;10.008;2022-12-07T10:02:19;9.73;;;7.43;;
35961;SDS011;22044;48.298;10.008;2022-12-07T10:05:19;8.23;;;6.63;;
35961;SDS011;22044;48.298;10.008;2022-12-07T10:08:08;9.57;;;6.53;;
35961;SDS011;22044;48.298;10.008;2022-12-07T10:10:56;7.57;;;6.30;;
35961;SDS011;22044;48.298;10.008;2022-12-07T10:13:43;10.63;;;6.60;;
35961;SDS011;22044;48.298;10.008;2022-12-07T10:16:35;8.33;;;6.23;;
35961;SDS011;22044;48.298;10.008;2022-12-07T10:19:25;9.77;;;6.87;;
35961;SDS011;22044;48.298;10.008;2022-12-07T10:22:13;8.23;;;6.73;;
35961;SDS011;22044;48.298;10.008;2022-12-07T10:25:07;7.53;;;6.43;;
35961;SDS011;22044;48.298;10.008;2022-12-07T10:27:58;7.73;;;6.20;;
35961;SDS011;22044;48.298;10.008;2022-12-07T10:30:55;10.90;;;7.40;;
35961;SDS011;22044;48.298;10.008;2022-12-07T10:33:48;9.17;;;7.13;;
35961;SDS011;22044;48.298;10.008;2022-12-07T10:36:37;8.27;;;6.40;;
35961;SDS011;22044;48.298;10.008;2022-12-07T10:39:23;9.00;;;6.97;;
35961;SDS011;22044;48.298;10.008;2022-12-07T10:42:15;8.53;;;6.63;;
35961;SDS011;22044;48.298;10.008;2022-12-07T10:45:09;8.37;;;6.60;;
35961;SDS011;22044;48.298;10.008;2022-12-07T10:48:00;9.97;;;7.27;;
35961;SDS011;22044;48.298;10.008;2022-12-07T10:50:54;9.97;;;6.60;;
35961;SDS011;22044;48.298;10.008;2022-12-07T10:54:03;9.90;;;7.07;;
35961;SDS011;22044;48.298;10.008;2022-12-07T10:57:05;11.13;;;7.33;;
35961;SDS011;22044;48.298;10.008;2022-12-07T11:00:13;8.97;;;6.77;;
35961;SDS011;22044;48.298;10.008;2022-12-07T11:03:19;10.10;;;6.27;;
35961;SDS011;22044;48.298;10.008;2022-12-07T11:06:33;13.97;;;7.40;;
35961;SDS011;22044;48.298;10.008;2022-12-07T11:09:36;7.00;;;5.93;;
35961;SDS011;22044;48.298;10.008;2022-12-07T11:12:47;10.33;;;6.27;;
35961;SDS011;22044;48.298;10.008;2022-12-07T11:15:50;11.33;;;6.83;;
35961;SDS011;22044;48.298;10.008;2022-12-07T11:18:48;8.63;;;5.27;;
35961;SDS011;22044;48.298;10.008;2022-12-07T11:21:45;5.40;;;4.00;;
35961;SDS011;22044;48.298;10.008;2022-12-07T11:24:40;9.37;;;5.70;;
35961;SDS011;22044;48.298;10.008;2022-12-07T11:27:34;6.87;;;4.70;;
35961;SDS011;22044;48.298;10.008;2022-12-07T11:30:26;6.37;;;4.67;;
35961;SDS011;22044;48.298;10.008;2022-12-07T11:33:17;5.47;;;4.50;;
35961;SDS011;22044;48.298;10.008;2022-12-07T11:36:11;4.73;;;4.23;;
35961;SDS011;22044;48.298;10.008;2022-12-07T11:39:19;5.50;;;4.40;;
35961;SDS011;22044;48.298;10.008;2022-12-07T11:42:14;5.50;;;3.90;;
35961;SDS011;22044;48.298;10.008;2022-12-07T11:45:12;5.47;;;4.23;;
35961;SDS011;22044;48.298;10.008;2022-12-07T11:48:01;5.17;;;4.17;;
35961;SDS011;22044;48.298;10.008;2022-12-07T11:50:50;5.77;;;4.13;;
35961;SDS011;22044;48.298;10.008;2022-12-07T11:53:38;5.37;;;4.40;;
35961;SDS011;22044;48.298;10.008;2022-12-07T11:56:30;5.03;;;4.13;;
35961;SDS011;22044;48.298;10.008;2022-12-07T11:59:23;4.40;;;3.70;;
35961;SDS011;22044;48.298;10.008;2022-12-07T12:02:14;5.90;;;4.33;;
35961;SDS011;22044;48.298;10.008;2022-12-07T12:05:02;4.60;;;3.83;;
35961;SDS011;22044;48.298;10.008;2022-12-07T12:08:00;4.20;;;3.80;;
35961;SDS011;22044;48.298;10.008;2022-12-07T12:10:59;4.27;;;3.60;;
35961;SDS011;22044;48.298;10.008;2022-12-07T12:20:32;4.80;;;4.20;;
35961;SDS011;22044;48.298;10.008;2022-12-07T12:23:24;5.60;;;4.40;;
35961;SDS011;22044;48.298;10.008;2022-12-07T12:26:20;5.30;;;4.17;;
35961;SDS011;22044;48.298;10.008;2022-12-07T12:29:18;4.70;;;4.07;;
35961;SDS011;22044;48.298;10.008;2022-12-07T12:32:11;6.33;;;4.63;;
35961;SDS011;22044;48.298;10.008;2022-12-07T12:35:02;7.07;;;5.43;;
35961;SDS011;22044;48.298;10.008;2022-12-07T12:51:36;8.67;;;7.00;;
35961;SDS011;22044;48.298;10.008;2022-12-07T12:54:24;6.40;;;4.97;;
35961;SDS011;22044;48.298;10.008;2022-12-07T12:57:12;6.27;;;5.33;;
35961;SDS011;22044;48.298;10.008;2022-12-07T13:00:14;5.47;;;4.40;;
35961;SDS011;22044;48.298;10.008;2022-12-07T13:03:02;4.80;;;4.23;;
35961;SDS011;22044;48.298;10.008;2022-12-07T13:05:49;5.77;;;4.53;;
35961;SDS011;22044;48.298;10.008;2022-12-07T13:09:21;5.13;;;3.93;;
35961;SDS011;22044;48.298;10.008;2022-12-07T13:12:11;5.77;;;3.83;;
35961;SDS011;22044;48.298;10.008;2022-12-07T13:14:59;4.23;;;3.70;;
35961;SDS011;22044;48.298;10.008;2022-12-07T13:17:56;5.23;;;4.20;;
35961;SDS011;22044;48.298;10.008;2022-12-07T13:20:47;5.60;;;4.33;;
35961;SDS011;22044;48.298;10.008;2022-12-07T13:23:35;5.60;;;4.37;;
35961;SDS011;22044;48.298;10.008;2022-12-07T13:26:22;5.10;;;3.83;;
35961;SDS011;22044;48.298;10.008;2022-12-07T13:29:19;7.17;;;5.30;;
35961;SDS011;22044;48.298;10.008;2022-12-07T13:32:17;8.97;;;5.83;;
35961;SDS011;22044;48.298;10.008;2022-12-07T13:35:27;6.37;;;4.90;;
35961;SDS011;22044;48.298;10.008;2022-12-07T13:38:19;4.40;;;3.67;;
35961;SDS011;22044;48.298;10.008;2022-12-07T13:41:14;5.53;;;4.00;;
35961;SDS011;22044;48.298;10.008;2022-12-07T13:44:02;4.10;;;3.43;;
35961;SDS011;22044;48.298;10.008;2022-12-07T13:46:55;7.70;;;3.93;;
35961;SDS011;22044;48.298;10.008;2022-12-07T13:49:47;6.83;;;3.93;;
35961;SDS011;22044;48.298;10.008;2022-12-07T13:52:34;6.90;;;4.10;;
35961;SDS011;22044;48.298;10.008;2022-12-07T13:55:30;5.70;;;3.43;;
35961;SDS011;22044;48.298;10.008;2022-12-07T13:58:16;4.80;;;4.10;;
35961;SDS011;22044;48.298;10.008;2022-12-07T14:01:02;5.23;;;4.03;;
35961;SDS011;22044;48.298;10.008;2022-12-07T14:03:48;5.80;;;4.30;;
35961;SDS011;22044;48.298;10.008;2022-12-07T14:06:33;4.43;;;3.77;;
35961;SDS011;22044;48.298;10.008;2022-12-07T14:09:20;5.70;;;3.90;;
35961;SDS011;22044;48.298;10.008;2022-12-07T14:12:08;5.37;;;4.17;;
35961;SDS011;22044;48.298;10.008;2022-12-07T14:14:53;5.07;;;4.13;;
35961;SDS011;22044;48.298;10.008;2022-12-07T14:17:49;6.53;;;4.23;;
35961;SDS011;22044;48.298;10.008;2022-12-07T14:20:37;7.47;;;5.50;;
35961;SDS011;22044;48.298;10.008;2022-12-07T14:23:24;10.03;;;7.87;;
35961;SDS011;22044;48.298;10.008;2022-12-07T14:26:11;8.43;;;6.70;;
35961;SDS011;22044;48.298;10.008;2022-12-07T14:32:17;9.07;;;5.97;;
35961;SDS011;22044;48.298;10.008;2022-12-07T14:35:08;7.03;;;5.40;;
35961;SDS011;22044;48.298;10.008;2022-12-07T14:37:55;7.80;;;5.40;;
35961;SDS011;22044;48.298;10.008;2022-12-07T14:40:41;5.20;;;4.33;;
35961;SDS011;22044;48.298;10.008;2022-12-07T14:43:27;6.20;;;4.53;;
35961;SDS011;22044;48.298;10.008;2022-12-07T14:46:14;6.67;;;5.00;;
35961;SDS011;22044;48.298;10.008;2022-12-07T14:48:59;6.87;;;4.97;;
35961;SDS011;22044;48.298;10.008;2022-12-07T14:51:45;9.67;;;5.27;;
35961;SDS011;22044;48.298;10.008;2022-12-07T14:54:31;23.70;;;12.37;;
35961;SDS011;22044;48.298;10.008;2022-12-07T14:57:18;22.53;;;13.60;;
35961;SDS011;22044;48.298;10.008;2022-12-07T15:00:05;14.90;;;9.17;;
35961;SDS011;22044;48.298;10.008;2022-12-07T15:02:52;13.87;;;8.93;;
35961;SDS011;22044;48.298;10.008;2022-12-07T15:05:38;13.33;;;8.50;;
35961;SDS011;22044;48.298;10.008;2022-12-07T15:08:24;14.63;;;8.63;;
35961;SDS011;22044;48.298;10.008;2022-12-07T15:11:10;11.53;;;7.43;;
35961;SDS011;22044;48.298;10.008;2022-12-07T15:13:57;26.07;;;12.30;;
35961;SDS011;22044;48.298;10.008;2022-12-07T15:16:52;20.23;;;10.80;;
35961;SDS011;22044;48.298;10.008;2022-12-07T15:19:39;14.27;;;8.90;;
35961;SDS011;22044;48.298;10.008;2022-12-07T15:22:26;14.67;;;7.43;;
35961;SDS011;22044;48.298;10.008;2022-12-07T15:25:14;11.03;;;6.13;;
35961;SDS011;22044;48.298;10.008;2022-12-07T15:28:00;9.23;;;7.03;;
35961;SDS011;22044;48.298;10.008;2022-12-07T15:30:46;8.83;;;5.43;;
35961;SDS011;22044;48.298;10.008;2022-12-07T15:33:31;10.33;;;6.23;;
35961;SDS011;22044;48.298;10.008;2022-12-07T15:36:20;7.80;;;5.13;;
35961;SDS011;22044;48.298;10.008;2022-12-07T15:39:07;6.07;;;4.67;;
35961;SDS011;22044;48.298;10.008;2022-12-07T15:41:53;6.50;;;5.50;;
35961;SDS011;22044;48.298;10.008;2022-12-07T15:44:39;7.63;;;5.27;;
35961;SDS011;22044;48.298;10.008;2022-12-07T15:47:43;7.60;;;5.33;;
35961;SDS011;22044;48.298;10.008;2022-12-07T15:50:29;13.07;;;7.70;;
35961;SDS011;22044;48.298;10.008;2022-12-07T15:53:16;10.27;;;6.97;;
35961;SDS011;22044;48.298;10.008;2022-12-07T15:56:01;15.83;;;9.70;;
35961;SDS011;22044;48.298;10.008;2022-12-07T15:58:51;14.37;;;10.03;;
35961;SDS011;22044;48.298;10.008;2022-12-07T16:01:36;11.20;;;8.63;;
35961;SDS011;22044;48.298;10.008;2022-12-07T16:04:22;9.07;;;7.13;;
35961;SDS011;22044;48.298;10.008;2022-12-07T16:07:09;7.40;;;5.77;;
35961;SDS011;22044;48.298;10.008;2022-12-07T16:09:56;6.73;;;5.20;;
35961;SDS011;22044;48.298;10.008;2022-12-07T16:12:42;8.60;;;6.33;;
35961;SDS011;22044;48.298;10.008;2022-12-07T16:15:27;8.83;;;6.23;;
35961;SDS011;22044;48.298;10.008;2022-12-07T16:18:13;9.17;;;6.63;;
35961;SDS011;22044;48.298;10.008;2022-12-07T16:20:59;9.03;;;6.50;;
35961;SDS011;22044;48.298;10.008;2022-12-07T16:23:45;8.93;;;6.80;;
35961;SDS011;22044;48.298;10.008;2022-12-07T16:26:32;10.87;;;8.57;;
35961;SDS011;22044;48.298;10.008;2022-12-07T16:29:18;14.57;;;9.93;;
35961;SDS011;22044;48.298;10.008;2022-12-07T16:32:05;19.47;;;13.60;;
35961;SDS011;22044;48.298;10.008;2022-12-07T16:34:51;17.47;;;12.50;;
35961;SDS011;22044;48.298;10.008;2022-12-07T16:37:36;16.93;;;11.67;;
35961;SDS011;22044;48.298;10.008;2022-12-07T16:40:22;23.25;;;18.67;;
35961;SDS011;22044;48.298;10.008;2022-12-07T16:43:09;21.23;;;15.50;;
35961;SDS011;22044;48.298;10.008;2022-12-07T16:45:58;19.53;;;14.27;;
35961;SDS011;22044;48.298;10.008;2022-12-07T16:48:43;12.93;;;9.93;;
35961;SDS011;22044;48.298;10.008;2022-12-07T16:51:29;11.13;;;8.33;;